Terminal Aerodrome Forecast
Issued by NWS

Home | Current Version | Previous Version | Text Only | Print | Product List | Glossary Off
Versions: 1 2 3 4 5 6 7 8 9 10 11 12 13 14 15 16 17 18 19 20 21 22 23 24 25 26 27 28 29 30 31 32 33 34 35

000
FTUS43 KGRB 191100
TAFRHI
TAF
KRHI 191125Z 1912/2012 19003KT P6SM BKN200
     FM191500 21009G18KT P6SM SCT080 BKN150
     FM191900 21010G19KT P6SM BKN090 OVC150
     FM200100 22005KT P6SM SCT090 BKN250
     FM200700 29006KT P6SM SCT045 BKN090=

USA.gov is the U.S. government's official web portal to all federal, state and local government web resources and services.